createdAt,value
2023-04-14T00:00:51.453Z,99757.60
2023-04-14T00:03:19.962Z,99755.48
2023-04-14T00:05:48.219Z,99758.70
2023-04-14T00:08:17.409Z,99754.81
2023-04-14T00:10:45.796Z,99750.52
2023-04-14T00:13:14.381Z,99757.17
2023-04-14T00:15:42.784Z,99762.17
2023-04-14T00:18:11.282Z,99760.53
2023-04-14T00:20:39.512Z,99754.41
2023-04-14T00:23:08.010Z,99753.26
2023-04-14T00:25:36.477Z,99760.73
2023-04-14T00:28:05.055Z,99753.75
2023-04-14T00:30:33.354Z,99750.05
2023-04-14T00:33:01.915Z,99749.42
2023-04-14T00:35:32.712Z,99754.74
2023-04-14T00:38:01.131Z,99758.61
2023-04-14T00:40:31.665Z,99752.36
2023-04-14T00:43:00.557Z,99749.07
2023-04-14T00:45:29.345Z,99747.23
2023-04-14T00:47:58.734Z,99743.87
2023-04-14T00:50:27.233Z,99744.98
2023-04-14T00:52:57.002Z,99748.31
2023-04-14T00:55:25.730Z,99748.10
2023-04-14T00:57:55.141Z,99743.33
2023-04-14T01:00:23.626Z,99740.64
2023-04-14T01:02:52.046Z,99740.49
2023-04-14T01:05:20.716Z,99738.55
2023-04-14T01:07:49.774Z,99738.06
2023-04-14T01:10:18.064Z,99740.48
2023-04-14T01:13:38.350Z,99737.54
2023-04-14T01:16:18.209Z,99739.90
2023-04-14T01:18:58.030Z,99737.02
2023-04-14T01:21:33.315Z,99736.58
2023-04-14T01:24:13.641Z,99732.35
2023-04-14T01:26:42.838Z,99733.38
2023-04-14T01:29:55.885Z,99732.81
2023-04-14T01:32:27.648Z,99734.48
2023-04-14T01:35:05.897Z,99726.90
2023-04-14T01:37:41.280Z,99721.15
2023-04-14T01:40:14.570Z,99716.40
2023-04-14T01:42:59.635Z,99718.06
2023-04-14T01:45:34.246Z,99720.73
2023-04-14T01:48:03.851Z,99720.95
2023-04-14T01:50:34.783Z,99718.89
2023-04-14T01:53:07.287Z,99714.64
2023-04-14T01:55:38.054Z,99708.11
2023-04-14T01:58:07.636Z,99712.68
2023-04-14T02:00:37.347Z,99712.73
2023-04-14T02:03:06.924Z,99708.61
2023-04-14T02:05:38.364Z,99708.84
2023-04-14T02:08:12.820Z,99707.59
2023-04-14T02:10:46.148Z,99705.88
2023-04-14T02:13:17.791Z,99707.14
2023-04-14T02:15:49.402Z,99705.33
2023-04-14T02:18:23.747Z,99707.77
2023-04-14T02:20:54.176Z,99711.44
2023-04-14T02:23:22.458Z,99713.23
2023-04-14T02:26:05.069Z,99715.66
2023-04-14T02:28:38.766Z,99720.19
2023-04-14T02:31:11.834Z,99729.92
2023-04-14T02:33:41.160Z,99724.14
2023-04-14T02:36:24.788Z,99729.05
2023-04-14T02:39:04.740Z,99722.01
2023-04-14T02:41:33.731Z,99718.27
2023-04-14T02:44:10.936Z,99719.52
2023-04-14T02:46:42.899Z,99722.73
2023-04-14T02:49:14.859Z,99719.70
2023-04-14T02:51:46.880Z,99718.52
2023-04-14T02:54:19.030Z,99715.84
2023-04-14T02:56:49.133Z,99722.64
2023-04-14T02:59:18.779Z,99729.30
2023-04-14T03:01:55.256Z,99729.04
2023-04-14T03:04:25.157Z,99729.83
2023-04-14T03:06:55.981Z,99729.98
2023-04-14T03:09:25.732Z,99727.69
2023-04-14T03:11:56.139Z,99722.27
2023-04-14T03:14:27.414Z,99729.71
2023-04-14T03:16:57.331Z,99731.52
2023-04-14T03:19:28.241Z,99731.16
2023-04-14T03:21:58.922Z,99729.98
2023-04-14T03:24:31.158Z,99729.17
2023-04-14T03:27:05.877Z,99725.88
2023-04-14T03:29:43.619Z,99722.37
2023-04-14T03:32:13.927Z,99727.02
2023-04-14T03:34:43.731Z,99725.84
2023-04-14T03:37:18.221Z,99723.36
2023-04-14T03:39:50.879Z,99722.21
2023-04-14T03:42:25.181Z,99719.26
2023-04-14T03:44:57.011Z,99722.55
2023-04-14T03:47:28.783Z,99723.03
2023-04-14T03:50:04.452Z,99724.84
2023-04-14T03:52:36.025Z,99724.17
2023-04-14T03:55:07.569Z,99724.51
2023-04-14T03:57:37.756Z,99724.59
2023-04-14T04:00:09.389Z,99725.19
2023-04-14T04:02:46.606Z,99726.30
2023-04-14T04:05:16.017Z,99727.02
2023-04-14T04:07:46.053Z,99725.73
2023-04-14T04:10:16.651Z,99728.09
2023-04-14T04:12:47.430Z,99737.20
2023-04-14T04:15:16.877Z,99737.23
2023-04-14T04:17:49.202Z,99736.96
2023-04-14T04:20:19.650Z,99732.53
2023-04-14T04:22:52.142Z,99740.23
2023-04-14T04:25:20.855Z,99742.91
2023-04-14T04:27:57.843Z,99748.48
2023-04-14T04:30:28.662Z,99741.86
2023-04-14T04:32:57.617Z,99738.85
2023-04-14T04:35:29.144Z,99741.65
2023-04-14T04:38:01.038Z,99735.88
2023-04-14T04:40:36.555Z,99737.11
2023-04-14T04:43:05.889Z,99737.02
2023-04-14T04:45:56.589Z,99738.02
2023-04-14T04:48:25.511Z,99740.36
2023-04-14T04:50:53.791Z,99735.58
2023-04-14T04:53:21.957Z,99733.11
2023-04-14T04:55:50.488Z,99729.32
2023-04-14T04:58:18.730Z,99724.39
2023-04-14T05:00:47.517Z,99719.95
2023-04-14T05:03:16.899Z,99721.47
2023-04-14T05:05:45.705Z,99721.23
2023-04-14T05:08:15.221Z,99720.29
2023-04-14T05:10:44.512Z,99719.01
2023-04-14T05:13:12.794Z,99717.50
2023-04-14T05:15:40.879Z,99715.40
2023-04-14T05:18:09.239Z,99717.08
2023-04-14T05:20:37.516Z,99714.19
2023-04-14T05:23:05.895Z,99715.31
2023-04-14T05:25:36.526Z,99714.95
2023-04-14T05:28:04.699Z,99719.02
2023-04-14T05:30:32.978Z,99721.98
2023-04-14T05:33:01.297Z,99723.92
2023-04-14T05:35:29.941Z,99722.19
2023-04-14T05:37:58.322Z,99720.20
2023-04-14T05:40:27.048Z,99718.95
2023-04-14T05:42:57.029Z,99718.02
2023-04-14T05:45:25.824Z,99716.73
2023-04-14T05:47:54.191Z,99713.35
2023-04-14T05:50:22.778Z,99704.30
2023-04-14T05:52:52.233Z,99699.58
2023-04-14T05:55:21.282Z,99693.86
2023-04-14T05:57:49.656Z,99688.96
2023-04-14T06:00:18.644Z,99690.96
2023-04-14T06:02:47.085Z,99690.55
2023-04-14T06:05:15.831Z,99695.16
2023-04-14T06:07:44.334Z,99696.48
2023-04-14T06:10:13.339Z,99703.33
2023-04-14T06:12:41.532Z,99704.02
2023-04-14T06:15:10.354Z,99698.96
2023-04-14T06:17:40.020Z,99704.45
2023-04-14T06:20:09.369Z,99702.02
2023-04-14T06:22:37.643Z,99696.16
2023-04-14T06:25:06.639Z,99692.60
2023-04-14T06:27:35.020Z,99692.39
2023-04-14T06:30:03.856Z,99696.28
2023-04-14T06:32:32.112Z,99698.56
2023-04-14T06:35:01.289Z,99695.10
2023-04-14T06:37:29.554Z,99687.33
2023-04-14T06:39:58.140Z,99685.11
2023-04-14T06:42:26.513Z,99680.54
2023-04-14T06:44:55.012Z,99684.86
2023-04-14T06:47:23.844Z,99688.04
2023-04-14T06:49:52.276Z,99688.54
2023-04-14T06:52:20.550Z,99691.89
2023-04-14T06:54:48.820Z,99690.95
2023-04-14T06:57:17.229Z,99696.83
2023-04-14T06:59:46.714Z,99697.34
2023-04-14T07:02:15.276Z,99700.22
2023-04-14T07:04:43.912Z,99705.10
2023-04-14T07:07:14.520Z,99705.59
2023-04-14T07:09:43.758Z,99705.23
2023-04-14T07:12:16.050Z,99702.55
2023-04-14T07:14:51.237Z,99704.67
2023-04-14T07:17:20.473Z,99704.84
2023-04-14T07:19:48.689Z,99704.77
2023-04-14T07:22:17.275Z,99704.73
2023-04-14T07:24:45.653Z,99697.51
2023-04-14T07:27:15.751Z,99699.30
2023-04-14T07:29:44.262Z,99697.23
2023-04-14T07:32:13.588Z,99699.06
2023-04-14T07:34:44.153Z,99703.09
2023-04-14T07:37:12.363Z,99700.69
2023-04-14T07:39:41.182Z,99700.88
2023-04-14T07:42:09.524Z,99699.73
2023-04-14T07:44:38.228Z,99702.52
2023-04-14T07:47:06.589Z,99694.77
2023-04-14T07:49:35.654Z,99689.30
2023-04-14T07:52:03.965Z,99687.02
2023-04-14T07:54:32.347Z,99687.70
2023-04-14T07:57:01.055Z,99681.43
2023-04-14T07:59:29.442Z,99681.58
2023-04-14T08:01:58.725Z,99682.58
2023-04-14T08:04:27.476Z,99680.34
2023-04-14T08:06:55.756Z,99679.84
2023-04-14T08:09:24.052Z,99674.20
2023-04-14T08:11:52.416Z,99677.33
2023-04-14T08:14:21.321Z,99673.52
2023-04-14T08:16:49.746Z,99672.08
2023-04-14T08:19:18.078Z,99668.16
2023-04-14T08:21:46.353Z,99669.45
2023-04-14T08:24:14.737Z,99674.16
2023-04-14T08:26:42.906Z,99675.01
2023-04-14T08:29:13.642Z,99664.70
2023-04-14T08:31:41.851Z,99660.02
2023-04-14T08:34:10.096Z,99645.23
2023-04-14T08:36:38.880Z,99642.55
2023-04-14T08:39:07.569Z,99636.55
2023-04-14T08:41:39.017Z,99632.39
2023-04-14T08:44:08.087Z,99630.83
2023-04-14T08:46:36.674Z,99637.98
2023-04-14T08:49:17.467Z,99638.13
2023-04-14T08:51:47.452Z,99637.66
2023-04-14T08:54:17.142Z,99632.95
2023-04-14T08:56:46.689Z,99628.34
2023-04-14T08:59:15.186Z,99617.91
2023-04-14T09:01:44.078Z,99613.84
2023-04-14T09:04:14.655Z,99613.71
2023-04-14T09:06:43.295Z,99613.40
2023-04-14T09:09:11.673Z,99611.33
2023-04-14T09:11:41.547Z,99616.34
2023-04-14T09:14:11.637Z,99607.91
2023-04-14T09:16:39.956Z,99604.15
2023-04-14T09:19:09.400Z,99600.60
2023-04-14T09:21:53.406Z,99600.17
2023-04-14T09:24:34.153Z,99595.06
2023-04-14T09:27:05.350Z,99594.90
2023-04-14T09:29:34.354Z,99594.85
2023-04-14T09:32:04.200Z,99590.52
2023-04-14T09:34:32.833Z,99589.27
2023-04-14T09:37:09.815Z,99593.05
2023-04-14T09:39:49.413Z,99594.92
2023-04-14T09:42:18.393Z,99591.24
2023-04-14T09:44:57.936Z,99597.64
2023-04-14T09:47:26.968Z,99592.60
2023-04-14T09:49:59.073Z,99592.77
2023-04-14T09:52:38.602Z,99584.68
2023-04-14T09:55:16.969Z,99576.63
2023-04-14T09:57:51.949Z,99564.94
2023-04-14T10:00:22.321Z,99551.29
2023-04-14T10:02:51.217Z,99545.77
2023-04-14T10:05:21.183Z,99537.48
2023-04-14T10:07:49.560Z,99529.75
2023-04-14T10:10:18.334Z,99519.40
2023-04-14T10:12:47.131Z,99517.52
2023-04-14T10:15:18.518Z,99518.35
2023-04-14T10:17:47.603Z,99518.22
2023-04-14T10:20:17.414Z,99520.52
2023-04-14T10:22:47.000Z,99518.86
2023-04-14T10:25:15.790Z,99510.86
2023-04-14T10:27:45.529Z,99500.61
2023-04-14T10:30:13.986Z,99490.34
2023-04-14T10:32:44.859Z,99492.83
2023-04-14T10:35:18.688Z,99489.48
2023-04-14T10:37:52.156Z,99482.39
2023-04-14T10:40:22.827Z,99473.00
2023-04-14T10:42:55.759Z,99472.52
2023-04-14T10:45:24.329Z,99461.05
2023-04-14T10:47:53.273Z,99456.88
2023-04-14T10:50:24.318Z,99459.89
2023-04-14T10:52:56.546Z,99473.28
2023-04-14T10:55:26.602Z,99477.48
2023-04-14T10:58:09.057Z,99482.92
2023-04-14T11:00:38.753Z,99483.33
2023-04-14T11:03:11.951Z,99485.14
2023-04-14T11:05:51.718Z,99496.91
2023-04-14T11:08:26.824Z,99501.98
2023-04-14T11:11:05.212Z,99510.08
2023-04-14T11:13:35.032Z,99513.50
2023-04-14T11:16:08.200Z,99510.08
2023-04-14T11:18:46.373Z,99508.70
2023-04-14T11:21:29.915Z,99509.00
2023-04-14T11:23:59.467Z,99508.59
2023-04-14T11:26:28.107Z,99500.27
2023-04-14T11:28:56.905Z,99498.62
2023-04-14T11:31:27.855Z,99491.34
2023-04-14T11:33:57.041Z,99491.40
2023-04-14T11:36:26.067Z,99492.90
2023-04-14T11:38:54.498Z,99490.08
2023-04-14T11:41:25.970Z,99488.60
2023-04-14T11:43:54.532Z,99484.02
2023-04-14T11:46:23.522Z,99486.69
2023-04-14T11:48:56.162Z,99500.16
2023-04-14T11:51:30.575Z,99506.80
2023-04-14T11:54:00.541Z,99522.73
2023-04-14T11:56:30.754Z,99542.42
2023-04-14T11:59:03.671Z,99547.16
2023-04-14T12:01:34.138Z,99542.10
2023-04-14T12:04:03.361Z,99539.35
2023-04-14T12:06:36.421Z,99539.44
2023-04-14T12:09:09.149Z,99536.11
2023-04-14T12:11:37.339Z,99534.25
2023-04-14T12:14:06.032Z,99529.89
2023-04-14T12:16:35.258Z,99525.87
2023-04-14T12:19:04.916Z,99517.98
2023-04-14T12:21:34.117Z,99503.67
2023-04-14T12:24:03.908Z,99491.55
2023-04-14T12:26:32.768Z,99479.73
2023-04-14T12:29:01.634Z,99470.23
2023-04-14T12:31:30.748Z,99460.01
2023-04-14T12:34:03.821Z,99448.95
2023-04-14T12:36:48.812Z,99438.58
2023-04-14T12:39:24.645Z,99419.09
2023-04-14T12:41:53.922Z,99410.48
2023-04-14T12:44:24.547Z,99405.30
2023-04-14T12:46:53.755Z,99406.44
2023-04-14T12:49:33.393Z,99402.91
2023-04-14T12:52:02.100Z,99398.29
2023-04-14T12:54:52.887Z,99392.86
2023-04-14T12:57:22.356Z,99400.69
2023-04-14T12:59:50.907Z,99402.05
2023-04-14T13:02:19.586Z,99398.09
2023-04-14T13:04:48.343Z,99402.46
2023-04-14T13:07:16.651Z,99396.52
2023-04-14T13:09:44.768Z,99387.19
2023-04-14T13:12:12.990Z,99394.11
2023-04-14T13:14:41.449Z,99393.13
2023-04-14T13:17:09.988Z,99395.62
2023-04-14T13:19:38.924Z,99391.92
2023-04-14T13:22:07.303Z,99387.59
2023-04-14T13:24:36.613Z,99391.59
2023-04-14T13:27:04.892Z,99391.81
2023-04-14T13:29:34.326Z,99397.08
2023-04-14T13:32:02.632Z,99395.54
2023-04-14T13:34:31.158Z,99395.84
2023-04-14T13:36:59.645Z,99398.95
2023-04-14T13:39:28.529Z,99400.73
2023-04-14T13:41:56.799Z,99405.66
2023-04-14T13:44:25.489Z,99401.66
2023-04-14T13:46:55.505Z,99401.84
2023-04-14T13:49:23.786Z,99394.05
2023-04-14T13:51:52.057Z,99392.66
2023-04-14T13:54:20.438Z,99396.40
2023-04-14T13:56:49.852Z,99391.73
2023-04-14T13:59:18.435Z,99392.91
2023-04-14T14:01:47.438Z,99389.68
2023-04-14T14:04:16.770Z,99377.84
2023-04-14T14:06:45.938Z,99378.46
2023-04-14T14:09:14.203Z,99386.05
2023-04-14T14:11:44.571Z,99380.64
2023-04-14T14:14:13.109Z,99384.34
2023-04-14T14:16:41.897Z,99384.45
2023-04-14T14:19:15.129Z,99392.19
2023-04-14T14:21:44.889Z,99394.50
2023-04-14T14:24:14.128Z,99402.53
2023-04-14T14:26:42.265Z,99410.06
2023-04-14T14:29:10.629Z,99413.29
2023-04-14T14:31:38.898Z,99414.29
2023-04-14T14:34:07.604Z,99413.95
2023-04-14T14:36:38.852Z,99408.46
2023-04-14T14:39:07.538Z,99405.38
2023-04-14T14:41:35.737Z,99399.66
2023-04-14T14:44:04.680Z,99399.17
2023-04-14T14:46:34.278Z,99398.69
2023-04-14T14:49:02.688Z,99396.94
2023-04-14T14:51:31.909Z,99401.01
2023-04-14T14:54:09.370Z,99411.48
2023-04-14T14:56:38.721Z,99402.81
2023-04-14T14:59:08.778Z,99400.90
2023-04-14T15:01:37.404Z,99401.04
2023-04-14T15:04:06.687Z,99402.52
2023-04-14T15:06:35.917Z,99401.73
2023-04-14T15:09:05.628Z,99403.29
2023-04-14T15:11:34.049Z,99403.63
2023-04-14T15:14:03.551Z,99397.40
2023-04-14T15:16:32.305Z,99403.88
2023-04-14T15:19:00.574Z,99411.62
2023-04-14T15:21:29.147Z,99413.61
2023-04-14T15:23:57.322Z,99419.52
2023-04-14T15:26:26.094Z,99423.35
2023-04-14T15:28:55.448Z,99420.91
2023-04-14T15:31:24.135Z,99421.45
2023-04-14T15:33:52.691Z,99408.48
2023-04-14T15:36:22.470Z,99409.71
2023-04-14T15:38:50.951Z,99413.64
2023-04-14T15:41:19.679Z,99414.59
2023-04-14T15:43:50.880Z,99413.73
2023-04-14T15:46:20.131Z,99406.38
2023-04-14T15:48:48.698Z,99410.42
2023-04-14T15:51:16.967Z,99407.02
2023-04-14T15:53:45.142Z,99404.14
2023-04-14T15:56:14.236Z,99401.41
2023-04-14T15:58:43.130Z,99403.22
2023-04-14T16:01:12.573Z,99404.05
2023-04-14T16:03:41.795Z,99403.80
2023-04-14T16:06:10.329Z,99410.73
2023-04-14T16:08:39.044Z,99414.52
2023-04-14T16:11:08.012Z,99409.98
2023-04-14T16:13:37.318Z,99405.48
2023-04-14T16:16:06.729Z,99406.10
2023-04-14T16:18:36.935Z,99408.13
2023-04-14T16:21:05.713Z,99409.88
2023-04-14T16:23:36.690Z,99410.33
2023-04-14T16:26:05.239Z,99408.95
2023-04-14T16:28:34.065Z,99411.98
2023-04-14T16:31:03.325Z,99412.13
2023-04-14T16:33:34.480Z,99414.92
2023-04-14T16:36:07.337Z,99421.23
2023-04-14T16:38:35.949Z,99437.05
2023-04-14T16:41:04.532Z,99452.72
2023-04-14T16:43:33.326Z,99463.15
2023-04-14T16:46:05.551Z,99465.84
2023-04-14T16:48:35.880Z,99478.47
2023-04-14T16:51:09.256Z,99490.46
2023-04-14T16:53:38.995Z,99501.85
2023-04-14T16:56:09.070Z,99511.80
2023-04-14T16:58:39.072Z,99522.71
2023-04-14T17:01:07.976Z,99524.61
2023-04-14T17:03:37.019Z,99534.20
2023-04-14T17:06:05.721Z,99551.84
2023-04-14T17:08:34.600Z,99557.02
2023-04-14T17:11:03.597Z,99578.92
2023-04-14T17:13:33.202Z,99605.77
2023-04-14T17:16:08.384Z,99624.73
2023-04-14T17:18:38.567Z,99628.46
2023-04-14T17:21:07.750Z,99644.20
2023-04-14T17:23:37.803Z,99648.17
2023-04-14T17:26:06.508Z,99650.48
2023-04-14T17:28:36.063Z,99659.44
2023-04-14T17:31:13.352Z,99672.68
2023-04-14T17:33:43.113Z,99684.39
2023-04-14T17:36:14.459Z,99691.75
2023-04-14T17:38:43.797Z,99689.95
2023-04-14T17:41:14.149Z,99694.25
2023-04-14T17:43:42.719Z,99699.21
2023-04-14T17:46:11.971Z,99700.06
2023-04-14T17:48:40.714Z,99696.27
2023-04-14T17:51:09.106Z,99710.17
2023-04-14T17:53:37.770Z,99721.27
2023-04-14T17:56:07.919Z,99744.34
2023-04-14T17:58:36.738Z,99753.83
2023-04-14T18:01:05.281Z,99761.64
2023-04-14T18:03:33.689Z,99765.54
2023-04-14T18:06:04.189Z,99765.75
2023-04-14T18:08:32.520Z,99763.55
2023-04-14T18:11:01.033Z,99756.82
2023-04-14T18:13:30.127Z,99759.61
2023-04-14T18:15:58.302Z,99773.71
2023-04-14T18:18:29.275Z,99774.79
2023-04-14T18:20:58.448Z,99767.50
2023-04-14T18:23:26.844Z,99763.80
2023-04-14T18:28:36.010Z,99780.59
2023-04-14T18:31:05.009Z,99787.33
2023-04-14T18:33:33.988Z,99786.10
2023-04-14T18:36:03.498Z,99786.35
2023-04-14T18:38:32.386Z,99785.17
2023-04-14T18:41:03.725Z,99788.48
2023-04-14T18:43:33.384Z,99806.36
2023-04-14T18:46:02.631Z,99821.36
2023-04-14T18:48:33.582Z,99822.85
2023-04-14T18:51:08.124Z,99823.95
2023-04-14T18:53:37.276Z,99824.63
2023-04-14T18:56:06.777Z,99816.13
2023-04-14T18:58:35.364Z,99819.70
2023-04-14T19:01:03.893Z,99822.20
2023-04-14T19:03:32.508Z,99823.17
2023-04-14T19:06:01.771Z,99825.81
2023-04-14T19:08:30.821Z,99827.46
2023-04-14T19:10:59.510Z,99810.67
2023-04-14T19:13:27.907Z,99811.44
2023-04-14T19:16:09.263Z,99815.88
2023-04-14T19:18:37.451Z,99806.48
2023-04-14T19:21:10.042Z,99799.63
2023-04-14T19:23:39.991Z,99804.52
2023-04-14T19:26:10.469Z,99808.09
2023-04-14T19:28:40.398Z,99810.27
2023-04-14T19:31:08.856Z,99813.27
2023-04-14T19:33:38.993Z,99803.31
2023-04-14T19:36:18.972Z,99787.29
2023-04-14T19:38:47.437Z,99785.92
2023-04-14T19:41:16.126Z,99788.95
2023-04-14T19:43:45.915Z,99787.64
2023-04-14T19:46:14.333Z,99786.66
2023-04-14T19:48:42.791Z,99786.60
2023-04-14T19:51:13.004Z,99781.08
2023-04-14T19:53:41.481Z,99779.19
2023-04-14T19:56:09.971Z,99776.23
2023-04-14T19:58:38.477Z,99768.89
2023-04-14T20:01:06.834Z,99765.28
2023-04-14T20:03:35.248Z,99764.27
2023-04-14T20:06:03.688Z,99779.77
2023-04-14T20:08:32.506Z,99787.58
2023-04-14T20:11:00.667Z,99777.66
2023-04-14T20:13:34.900Z,99755.02
2023-04-14T20:16:03.041Z,99766.23
2023-04-14T20:18:32.753Z,99765.20
2023-04-14T20:21:01.052Z,99765.44
2023-04-14T20:23:29.921Z,99768.41
2023-04-14T20:25:58.405Z,99764.96
2023-04-14T20:28:26.792Z,99770.40
2023-04-14T20:30:56.339Z,99773.60
2023-04-14T20:33:24.926Z,99758.11
2023-04-14T20:35:54.184Z,99736.86
2023-04-14T20:38:23.078Z,99747.35
2023-04-14T20:40:51.342Z,99793.42
2023-04-14T20:43:20.057Z,99805.98
2023-04-14T20:45:50.001Z,99796.73
2023-04-14T20:48:19.545Z,99784.63
2023-04-14T20:50:49.864Z,99774.46
2023-04-14T20:53:21.330Z,99790.44
2023-04-14T20:55:51.129Z,99798.95
2023-04-14T20:58:19.640Z,99807.30
2023-04-14T21:00:48.302Z,99796.58
2023-04-14T21:03:17.243Z,99797.27
2023-04-14T21:05:46.449Z,99794.67
2023-04-14T21:08:14.898Z,99799.20
2023-04-14T21:11:02.285Z,99798.52
2023-04-14T21:15:25.084Z,99793.24
2023-04-14T21:16:19.859Z,99791.09
2023-04-14T21:18:47.923Z,99787.27
2023-04-14T21:21:16.404Z,99785.27
2023-04-14T21:23:44.686Z,99786.52
2023-04-14T21:26:13.674Z,99799.05
2023-04-14T21:28:42.088Z,99803.23
2023-04-14T21:31:11.551Z,99801.38
2023-04-14T21:33:41.916Z,99803.17
2023-04-14T21:36:10.950Z,99809.53
2023-04-14T21:38:39.660Z,99801.38
2023-04-14T21:41:08.215Z,99803.40
2023-04-14T21:43:38.830Z,99808.50
2023-04-14T21:46:07.518Z,99813.36
2023-04-14T21:48:36.053Z,99817.58
2023-04-14T21:51:04.427Z,99819.39
2023-04-14T21:53:33.212Z,99828.47
2023-04-14T21:56:09.855Z,99830.98
2023-04-14T21:58:40.332Z,99826.77
2023-04-14T22:01:12.635Z,99818.84
2023-04-14T22:03:41.754Z,99808.66
2023-04-14T22:06:11.602Z,99802.86
2023-04-14T22:08:41.141Z,99800.88
2023-04-14T22:11:09.686Z,99813.58
2023-04-14T22:13:38.713Z,99813.96
2023-04-14T22:16:07.986Z,99822.83
2023-04-14T22:18:39.022Z,99822.77
2023-04-14T22:21:10.783Z,99822.95
2023-04-14T22:23:40.289Z,99824.54
2023-04-14T22:26:09.327Z,99835.04
2023-04-14T22:28:37.967Z,99837.78
2023-04-14T22:31:06.532Z,99838.38
2023-04-14T22:33:35.965Z,99835.21
2023-04-14T22:36:07.303Z,99834.48
2023-04-14T22:38:36.095Z,99835.54
2023-04-14T22:41:04.571Z,99842.70
2023-04-14T22:43:32.742Z,99849.93
2023-04-14T22:46:00.881Z,99853.86
2023-04-14T22:48:29.099Z,99850.91
2023-04-14T22:50:57.573Z,99847.84
2023-04-14T22:53:25.988Z,99841.77
2023-04-14T22:55:54.331Z,99833.51
2023-04-14T22:58:24.248Z,99834.88
2023-04-14T23:00:52.829Z,99834.00
2023-04-14T23:03:21.696Z,99830.05
2023-04-14T23:05:52.042Z,99822.83
2023-04-14T23:08:20.536Z,99820.58
2023-04-14T23:10:48.803Z,99825.50
2023-04-14T23:13:17.080Z,99831.35
2023-04-14T23:15:45.714Z,99826.20
2023-04-14T23:18:14.561Z,99814.08
2023-04-14T23:20:43.357Z,99810.12
2023-04-14T23:23:12.404Z,99803.60
2023-04-14T23:25:41.742Z,99806.66
2023-04-14T23:28:10.217Z,99815.27
2023-04-14T23:30:38.565Z,99818.77
2023-04-14T23:33:06.977Z,99818.61
2023-04-14T23:35:36.075Z,99815.38
2023-04-14T23:38:04.256Z,99816.24
2023-04-14T23:40:34.168Z,99817.34
2023-04-14T23:43:02.857Z,99811.27
2023-04-14T23:45:37.322Z,99810.89
2023-04-14T23:48:06.808Z,99804.48
2023-04-14T23:51:01.212Z,99800.23
2023-04-14T23:53:24.629Z,99792.84
2023-04-14T23:55:53.632Z,99793.23
2023-04-14T23:58:26.717Z,99791.54
